KHII/HII METAR and TAF weather

Enter ICAO airport designator
Station Type Date Time Source
KHII METAR 2019/02/23 00:10 UTC NOAA

KHII 230010Z AUTO 33011G22KT 10SM CLR 12/M07 A2998 RMK AO2


Station Type Date Time Source
KHII Decoded METAR 2019/02/23 00:10 UTC NOAA

Station name not available
Feb 22, 2019 - 07:10 PM EST / 2019.02.23 0010 UTC
Wind: from the NNW (330 degrees) at 13 MPH (11 KT) gusting to 25 MPH (22 KT):0
Visibility: 10 mile(s):0
Sky conditions: clear
Temperature: 53 F (12 C)
Dew Point: 19 F (-7 C)
Relative Humidity: 25%
Pressure (altimeter): 29.98 in. Hg (1015 hPa)
ob: KHII 230010Z AUTO 33011G22KT 10SM CLR 12/M07 A2998 RMK AO2
cycle: 0

Station Type Date Time Source
KHII TAF UTC NOAA

Error!


Example: see airport list